Nickerson, Nebraska
Current Conditions -  °F | °C
As of 9:15 PM on Saturday 20 Dec 2014 (Local Time) from KFET Reporting Station
Haze Haze  
Wind Chill: 29°   Ceiling: 600
Heat Index: 35°   Visibility: 5mi
Dew Point: 33°   Wind: 7mph
Humidity: 94%   Direction: 150°SSE
Pressure: 30.03"   Gusts: NA
Location:  41.53°N, 96.47°W
Report Text: KFET 210315Z AUTO 15006KT 5SM BR OVC006 02/01 A3003 RMK AO2 T00160008
Loading
Personal Weather Stations






























Interactive Weather Map New forecast layout! Learn more

10-Day Weather Forecast

Advertisements
Track Severe Weather on mobile